sensor_id;sensor_type;location;lat;lon;timestamp;pressure;altitude;pressure_sealevel;temperature;humidity
62592;BME280;48659;41.622;2.276;2023-01-24T00:01:41;100436.43;;;1.56;48.60
62592;BME280;48659;41.622;2.276;2023-01-24T00:04:09;100432.38;;;2.79;47.13
62592;BME280;48659;41.622;2.276;2023-01-24T00:06:36;100431.09;;;1.88;48.51
62592;BME280;48659;41.622;2.276;2023-01-24T00:09:03;100428.31;;;2.85;46.41
62592;BME280;48659;41.622;2.276;2023-01-24T00:11:45;100425.60;;;2.62;45.37
62592;BME280;48659;41.622;2.276;2023-01-24T00:14:12;100426.49;;;3.19;45.30
62592;BME280;48659;41.622;2.276;2023-01-24T00:16:40;100421.51;;;3.05;44.55
62592;BME280;48659;41.622;2.276;2023-01-24T00:19:08;100422.10;;;3.99;42.99
62592;BME280;48659;41.622;2.276;2023-01-24T00:21:41;100421.64;;;3.92;42.10
62592;BME280;48659;41.622;2.276;2023-01-24T00:24:08;100420.56;;;5.01;41.14
62592;BME280;48659;41.622;2.276;2023-01-24T00:26:40;100416.41;;;3.96;41.08
62592;BME280;48659;41.622;2.276;2023-01-24T00:29:07;100421.54;;;5.11;40.13
62592;BME280;48659;41.622;2.276;2023-01-24T00:31:44;100421.63;;;4.37;40.69
62592;BME280;48659;41.622;2.276;2023-01-24T00:34:12;100421.00;;;5.76;39.47
62592;BME280;48659;41.622;2.276;2023-01-24T00:36:41;100424.05;;;4.91;39.40
62592;BME280;48659;41.622;2.276;2023-01-24T00:39:10;100427.03;;;5.33;39.62
62592;BME280;48659;41.622;2.276;2023-01-24T00:41:37;100427.71;;;4.92;39.77
62592;BME280;48659;41.622;2.276;2023-01-24T00:44:05;100435.67;;;4.60;40.87
62592;BME280;48659;41.622;2.276;2023-01-24T00:46:40;100436.32;;;4.48;39.68
62592;BME280;48659;41.622;2.276;2023-01-24T00:49:08;100442.18;;;5.13;39.62
62592;BME280;48659;41.622;2.276;2023-01-24T00:51:40;100449.21;;;4.74;38.91
62592;BME280;48659;41.622;2.276;2023-01-24T00:54:07;100452.57;;;5.84;38.44
62592;BME280;48659;41.622;2.276;2023-01-24T00:56:39;100451.70;;;5.63;37.95
62592;BME280;48659;41.622;2.276;2023-01-24T01:28:42;100488.01;;;3.18;40.14
62592;BME280;48659;41.622;2.276;2023-01-24T01:31:10;100480.40;;;3.11;37.96
62592;BME280;48659;41.622;2.276;2023-01-24T01:33:41;100474.21;;;2.63;38.14
62592;BME280;48659;41.622;2.276;2023-01-24T01:36:08;100484.61;;;1.48;38.97
62592;BME280;48659;41.622;2.276;2023-01-24T01:38:35;100489.92;;;1.61;40.26
62592;BME280;48659;41.622;2.276;2023-01-24T01:41:03;100501.82;;;1.67;40.51
62592;BME280;48659;41.622;2.276;2023-01-24T01:43:31;100499.82;;;1.91;40.60
62592;BME280;48659;41.622;2.276;2023-01-24T01:46:06;100506.90;;;0.54;43.05
62592;BME280;48659;41.622;2.276;2023-01-24T01:48:37;100499.32;;;0.84;42.65
62592;BME280;48659;41.622;2.276;2023-01-24T01:51:11;100500.31;;;0.70;43.48
62592;BME280;48659;41.622;2.276;2023-01-24T01:53:44;100506.30;;;1.64;41.50
62592;BME280;48659;41.622;2.276;2023-01-24T01:56:21;100505.53;;;1.75;40.28
62592;BME280;48659;41.622;2.276;2023-01-24T02:03:10;100498.42;;;1.08;39.70
62592;BME280;48659;41.622;2.276;2023-01-24T02:05:39;100504.62;;;-0.14;42.10
62592;BME280;48659;41.622;2.276;2023-01-24T02:08:08;100498.91;;;2.63;38.82
62592;BME280;48659;41.622;2.276;2023-01-24T02:10:36;100492.85;;;2.56;38.09
62592;BME280;48659;41.622;2.276;2023-01-24T02:13:03;100489.96;;;2.53;38.36
62592;BME280;48659;41.622;2.276;2023-01-24T02:15:32;100486.46;;;2.86;38.46
62592;BME280;48659;41.622;2.276;2023-01-24T02:18:00;100485.11;;;3.44;37.45
62592;BME280;48659;41.622;2.276;2023-01-24T02:46:29;100480.55;;;4.45;35.69
62592;BME280;48659;41.622;2.276;2023-01-24T02:48:55;100478.37;;;3.40;33.89
62592;BME280;48659;41.622;2.276;2023-01-24T02:51:22;100479.33;;;3.28;33.97
62592;BME280;48659;41.622;2.276;2023-01-24T02:53:49;100477.30;;;3.63;34.70
62592;BME280;48659;41.622;2.276;2023-01-24T02:56:17;100477.21;;;4.47;34.52
62592;BME280;48659;41.622;2.276;2023-01-24T02:58:44;100479.72;;;4.11;34.84
62592;BME280;48659;41.622;2.276;2023-01-24T03:01:12;100484.70;;;4.17;35.62
62592;BME280;48659;41.622;2.276;2023-01-24T03:03:41;100483.62;;;2.13;37.31
62592;BME280;48659;41.622;2.276;2023-01-24T03:06:08;100484.22;;;2.70;37.37
62592;BME280;48659;41.622;2.276;2023-01-24T03:08:41;100485.87;;;2.19;37.37
62592;BME280;48659;41.622;2.276;2023-01-24T03:11:11;100488.92;;;2.99;36.94
62592;BME280;48659;41.622;2.276;2023-01-24T03:13:42;100488.67;;;3.21;35.57
62592;BME280;48659;41.622;2.276;2023-01-24T03:16:10;100493.76;;;2.70;37.16
62592;BME280;48659;41.622;2.276;2023-01-24T03:18:41;100495.03;;;2.17;37.04
62592;BME280;48659;41.622;2.276;2023-01-24T03:21:08;100493.70;;;2.37;36.44
62592;BME280;48659;41.622;2.276;2023-01-24T03:23:36;100496.94;;;2.20;37.34
62592;BME280;48659;41.622;2.276;2023-01-24T03:26:03;100496.35;;;2.44;37.56
62592;BME280;48659;41.622;2.276;2023-01-24T03:28:31;100495.90;;;2.03;37.55
62592;BME280;48659;41.622;2.276;2023-01-24T03:30:59;100500.92;;;1.87;37.89
62592;BME280;48659;41.622;2.276;2023-01-24T03:33:26;100499.82;;;2.22;37.86
62592;BME280;48659;41.622;2.276;2023-01-24T03:35:54;100501.20;;;2.01;37.64
62592;BME280;48659;41.622;2.276;2023-01-24T03:38:22;100509.03;;;1.00;39.62
62592;BME280;48659;41.622;2.276;2023-01-24T03:40:51;100512.88;;;0.98;39.59
62592;BME280;48659;41.622;2.276;2023-01-24T03:43:18;100513.18;;;1.65;38.64
62592;BME280;48659;41.622;2.276;2023-01-24T03:45:51;100512.83;;;1.28;39.64
62592;BME280;48659;41.622;2.276;2023-01-24T03:48:18;100499.40;;;2.94;37.46
62592;BME280;48659;41.622;2.276;2023-01-24T03:50:46;100499.39;;;2.07;37.02
62592;BME280;48659;41.622;2.276;2023-01-24T03:53:14;100500.78;;;3.19;35.80
62592;BME280;48659;41.622;2.276;2023-01-24T03:55:41;100500.44;;;3.13;36.03
62592;BME280;48659;41.622;2.276;2023-01-24T03:58:10;100500.57;;;3.52;35.67
62592;BME280;48659;41.622;2.276;2023-01-24T04:00:38;100502.05;;;2.53;35.81
62592;BME280;48659;41.622;2.276;2023-01-24T04:03:06;100501.98;;;3.66;35.14
62592;BME280;48659;41.622;2.276;2023-01-24T04:05:45;100507.13;;;3.73;36.13
62592;BME280;48659;41.622;2.276;2023-01-24T04:08:13;100510.86;;;2.97;35.90
62592;BME280;48659;41.622;2.276;2023-01-24T04:10:41;100511.56;;;2.57;37.64
62592;BME280;48659;41.622;2.276;2023-01-24T04:13:08;100511.45;;;2.60;37.30
62592;BME280;48659;41.622;2.276;2023-01-24T04:15:37;100510.45;;;3.24;36.15
62592;BME280;48659;41.622;2.276;2023-01-24T04:18:05;100509.23;;;4.40;34.70
62592;BME280;48659;41.622;2.276;2023-01-24T04:20:35;100510.98;;;3.68;35.18
62592;BME280;48659;41.622;2.276;2023-01-24T04:23:05;100505.88;;;4.66;34.16
62592;BME280;48659;41.622;2.276;2023-01-24T04:25:34;100504.43;;;4.63;34.42
62592;BME280;48659;41.622;2.276;2023-01-24T04:28:03;100503.89;;;4.58;33.94
62592;BME280;48659;41.622;2.276;2023-01-24T04:30:30;100500.54;;;5.13;33.26
62592;BME280;48659;41.622;2.276;2023-01-24T04:32:58;100501.31;;;5.19;33.42
62592;BME280;48659;41.622;2.276;2023-01-24T04:35:27;100502.53;;;5.79;32.62
62592;BME280;48659;41.622;2.276;2023-01-24T04:37:58;100504.74;;;5.27;32.58
62592;BME280;48659;41.622;2.276;2023-01-24T04:40:25;100506.05;;;5.50;32.77
62592;BME280;48659;41.622;2.276;2023-01-24T04:42:55;100505.72;;;4.88;33.19
62592;BME280;48659;41.622;2.276;2023-01-24T04:45:23;100505.80;;;5.45;33.09
62592;BME280;48659;41.622;2.276;2023-01-24T04:47:51;100505.52;;;5.25;33.61
62592;BME280;48659;41.622;2.276;2023-01-24T04:50:19;100506.62;;;5.31;33.50
62592;BME280;48659;41.622;2.276;2023-01-24T04:52:47;100510.09;;;4.32;34.41
62592;BME280;48659;41.622;2.276;2023-01-24T04:55:14;100507.89;;;5.40;33.73
62592;BME280;48659;41.622;2.276;2023-01-24T04:57:42;100513.01;;;4.89;34.13
62592;BME280;48659;41.622;2.276;2023-01-24T05:00:11;100518.69;;;5.18;33.20
62592;BME280;48659;41.622;2.276;2023-01-24T05:02:41;100521.37;;;4.68;33.11
62592;BME280;48659;41.622;2.276;2023-01-24T05:05:09;100520.85;;;5.44;32.74
62592;BME280;48659;41.622;2.276;2023-01-24T05:07:37;100516.47;;;5.23;33.64
62592;BME280;48659;41.622;2.276;2023-01-24T05:10:06;100517.53;;;5.35;34.54
62592;BME280;48659;41.622;2.276;2023-01-24T05:12:34;100520.74;;;5.18;33.95
62592;BME280;48659;41.622;2.276;2023-01-24T05:15:01;100522.07;;;5.14;34.07
62592;BME280;48659;41.622;2.276;2023-01-24T05:17:29;100526.09;;;5.34;34.30
62592;BME280;48659;41.622;2.276;2023-01-24T05:19:56;100527.19;;;5.30;34.08
62592;BME280;48659;41.622;2.276;2023-01-24T05:22:24;100531.52;;;5.15;34.62
62592;BME280;48659;41.622;2.276;2023-01-24T05:24:51;100537.94;;;2.96;37.41
62592;BME280;48659;41.622;2.276;2023-01-24T05:27:18;100536.74;;;4.84;35.02
62592;BME280;48659;41.622;2.276;2023-01-24T05:29:45;100534.59;;;5.18;34.47
62592;BME280;48659;41.622;2.276;2023-01-24T05:32:12;100537.50;;;5.32;34.58
62592;BME280;48659;41.622;2.276;2023-01-24T05:34:39;100539.84;;;5.00;34.84
62592;BME280;48659;41.622;2.276;2023-01-24T05:37:07;100539.53;;;5.65;34.27
62592;BME280;48659;41.622;2.276;2023-01-24T05:39:35;100539.27;;;5.48;35.11
62592;BME280;48659;41.622;2.276;2023-01-24T05:42:03;100544.81;;;5.52;35.38
62592;BME280;48659;41.622;2.276;2023-01-24T05:44:30;100548.59;;;5.85;34.45
62592;BME280;48659;41.622;2.276;2023-01-24T05:46:57;100552.32;;;5.38;34.78
62592;BME280;48659;41.622;2.276;2023-01-24T05:49:25;100554.44;;;4.81;35.26
62592;BME280;48659;41.622;2.276;2023-01-24T05:51:52;100562.64;;;2.44;38.79
62592;BME280;48659;41.622;2.276;2023-01-24T05:54:20;100556.01;;;4.93;37.71
62592;BME280;48659;41.622;2.276;2023-01-24T05:56:47;100558.68;;;4.88;36.14
62592;BME280;48659;41.622;2.276;2023-01-24T05:59:15;100558.43;;;5.23;35.19
62592;BME280;48659;41.622;2.276;2023-01-24T06:01:43;100562.09;;;5.02;34.95
62592;BME280;48659;41.622;2.276;2023-01-24T06:04:10;100564.84;;;5.30;34.51
62592;BME280;48659;41.622;2.276;2023-01-24T06:06:38;100566.70;;;4.73;34.14
62592;BME280;48659;41.622;2.276;2023-01-24T06:09:05;100569.81;;;5.81;33.96
62592;BME280;48659;41.622;2.276;2023-01-24T06:11:33;100568.35;;;4.99;34.44
62592;BME280;48659;41.622;2.276;2023-01-24T06:14:01;100573.67;;;2.72;37.74
62592;BME280;48659;41.622;2.276;2023-01-24T06:16:29;100573.87;;;3.89;36.65
62592;BME280;48659;41.622;2.276;2023-01-24T06:18:57;100571.08;;;4.49;35.19
62592;BME280;48659;41.622;2.276;2023-01-24T06:21:40;100577.35;;;5.29;34.80
62592;BME280;48659;41.622;2.276;2023-01-24T06:24:15;100579.11;;;5.24;34.31
62592;BME280;48659;41.622;2.276;2023-01-24T06:26:44;100579.19;;;5.17;34.57
62592;BME280;48659;41.622;2.276;2023-01-24T06:29:13;100581.10;;;4.99;34.56
62592;BME280;48659;41.622;2.276;2023-01-24T06:31:52;100583.10;;;4.74;34.63
62592;BME280;48659;41.622;2.276;2023-01-24T06:34:39;100590.98;;;5.13;35.40
62592;BME280;48659;41.622;2.276;2023-01-24T06:37:18;100593.90;;;5.11;34.32
62592;BME280;48659;41.622;2.276;2023-01-24T06:39:50;100588.01;;;5.87;33.61
62592;BME280;48659;41.622;2.276;2023-01-24T06:42:18;100585.81;;;5.43;34.17
62592;BME280;48659;41.622;2.276;2023-01-24T06:44:46;100587.85;;;5.32;34.66
62592;BME280;48659;41.622;2.276;2023-01-24T06:47:14;100586.06;;;5.16;34.39
62592;BME280;48659;41.622;2.276;2023-01-24T06:49:43;100587.31;;;4.24;34.80
62592;BME280;48659;41.622;2.276;2023-01-24T06:52:11;100589.56;;;5.04;34.65
62592;BME280;48659;41.622;2.276;2023-01-24T06:54:43;100588.66;;;4.90;35.39
62592;BME280;48659;41.622;2.276;2023-01-24T06:57:10;100596.84;;;5.18;36.38
62592;BME280;48659;41.622;2.276;2023-01-24T06:59:42;100598.15;;;4.73;34.59
62592;BME280;48659;41.622;2.276;2023-01-24T07:02:09;100599.69;;;6.03;33.78
62592;BME280;48659;41.622;2.276;2023-01-24T07:04:42;100601.60;;;5.29;33.92
62592;BME280;48659;41.622;2.276;2023-01-24T07:07:10;100604.34;;;6.09;34.39
62592;BME280;48659;41.622;2.276;2023-01-24T07:09:37;100604.09;;;5.67;33.13
62592;BME280;48659;41.622;2.276;2023-01-24T07:12:05;100603.35;;;5.74;33.93
62592;BME280;48659;41.622;2.276;2023-01-24T07:14:41;100602.36;;;5.85;33.31
62592;BME280;48659;41.622;2.276;2023-01-24T07:17:09;100600.67;;;5.92;33.96
62592;BME280;48659;41.622;2.276;2023-01-24T07:19:38;100601.28;;;5.90;33.82
62592;BME280;48659;41.622;2.276;2023-01-24T07:22:08;100605.81;;;5.94;34.01
62592;BME280;48659;41.622;2.276;2023-01-24T07:24:37;100622.42;;;5.72;33.92
62592;BME280;48659;41.622;2.276;2023-01-24T07:27:05;100627.39;;;6.07;35.23
62592;BME280;48659;41.622;2.276;2023-01-24T07:29:33;100625.80;;;5.56;34.83
62592;BME280;48659;41.622;2.276;2023-01-24T07:32:01;100623.17;;;5.48;36.02
62592;BME280;48659;41.622;2.276;2023-01-24T07:34:28;100628.91;;;5.77;34.47
62592;BME280;48659;41.622;2.276;2023-01-24T07:36:56;100630.38;;;5.47;35.22
62592;BME280;48659;41.622;2.276;2023-01-24T07:39:24;100630.87;;;5.33;34.91
62592;BME280;48659;41.622;2.276;2023-01-24T07:41:54;100632.03;;;5.52;34.78
62592;BME280;48659;41.622;2.276;2023-01-24T07:44:21;100636.65;;;5.91;34.21
62592;BME280;48659;41.622;2.276;2023-01-24T07:46:48;100642.77;;;6.04;34.26
62592;BME280;48659;41.622;2.276;2023-01-24T07:49:15;100642.76;;;6.04;34.49
62592;BME280;48659;41.622;2.276;2023-01-24T07:51:42;100646.75;;;5.85;34.53
62592;BME280;48659;41.622;2.276;2023-01-24T07:54:10;100652.12;;;5.55;34.98
62592;BME280;48659;41.622;2.276;2023-01-24T07:56:44;100650.46;;;5.06;35.43
62592;BME280;48659;41.622;2.276;2023-01-24T07:59:11;100655.27;;;5.96;34.77
62592;BME280;48659;41.622;2.276;2023-01-24T08:01:38;100655.91;;;5.71;34.64
62592;BME280;48659;41.622;2.276;2023-01-24T08:04:06;100661.80;;;5.97;34.41
62592;BME280;48659;41.622;2.276;2023-01-24T08:06:34;100666.59;;;5.72;35.45
62592;BME280;48659;41.622;2.276;2023-01-24T08:09:02;100665.81;;;6.16;33.71
62592;BME280;48659;41.622;2.276;2023-01-24T08:11:28;100669.04;;;6.42;34.49
62592;BME280;48659;41.622;2.276;2023-01-24T08:13:57;100667.06;;;6.43;33.40
62592;BME280;48659;41.622;2.276;2023-01-24T08:16:24;100672.68;;;6.03;33.94
62592;BME280;48659;41.622;2.276;2023-01-24T08:18:52;100680.01;;;5.59;34.51
62592;BME280;48659;41.622;2.276;2023-01-24T08:21:19;100685.59;;;6.41;34.44
62592;BME280;48659;41.622;2.276;2023-01-24T08:23:47;100689.37;;;5.94;34.78
62592;BME280;48659;41.622;2.276;2023-01-24T08:26:15;100691.30;;;5.77;34.54
62592;BME280;48659;41.622;2.276;2023-01-24T08:28:42;100696.56;;;5.61;34.82
62592;BME280;48659;41.622;2.276;2023-01-24T08:31:09;100704.72;;;5.73;35.08
62592;BME280;48659;41.622;2.276;2023-01-24T08:33:37;100708.96;;;5.40;34.96
62592;BME280;48659;41.622;2.276;2023-01-24T08:36:05;100716.85;;;4.04;38.66
62592;BME280;48659;41.622;2.276;2023-01-24T08:38:32;100727.50;;;2.40;40.12
62592;BME280;48659;41.622;2.276;2023-01-24T08:41:02;100727.96;;;3.66;39.96
62592;BME280;48659;41.622;2.276;2023-01-24T08:43:30;100722.78;;;3.76;38.53
62592;BME280;48659;41.622;2.276;2023-01-24T08:45:57;100725.94;;;3.87;38.83
62592;BME280;48659;41.622;2.276;2023-01-24T08:48:27;100724.08;;;3.65;38.58
62592;BME280;48659;41.622;2.276;2023-01-24T08:50:56;100722.63;;;3.49;39.18
62592;BME280;48659;41.622;2.276;2023-01-24T08:53:23;100721.95;;;4.11;41.51
62592;BME280;48659;41.622;2.276;2023-01-24T08:55:51;100714.73;;;4.93;39.94
62592;BME280;48659;41.622;2.276;2023-01-24T08:58:19;100692.86;;;5.51;40.04
62592;BME280;48659;41.622;2.276;2023-01-24T09:00:47;100692.37;;;5.67;40.70
62592;BME280;48659;41.622;2.276;2023-01-24T09:03:16;100704.61;;;6.19;40.13
62592;BME280;48659;41.622;2.276;2023-01-24T09:05:44;100732.12;;;2.61;45.66
62592;BME280;48659;41.622;2.276;2023-01-24T09:08:12;100739.69;;;1.49;48.71
62592;BME280;48659;41.622;2.276;2023-01-24T09:10:40;100743.33;;;2.19;48.31
62592;BME280;48659;41.622;2.276;2023-01-24T09:13:07;100750.02;;;3.55;47.15
62592;BME280;48659;41.622;2.276;2023-01-24T09:15:35;100760.38;;;0.56;52.86
62592;BME280;48659;41.622;2.276;2023-01-24T09:18:03;100760.28;;;0.96;53.69
62592;BME280;48659;41.622;2.276;2023-01-24T09:20:30;100750.00;;;2.45;52.34
62592;BME280;48659;41.622;2.276;2023-01-24T09:22:58;100748.54;;;0.79;54.83
62592;BME280;48659;41.622;2.276;2023-01-24T09:25:26;100738.93;;;2.72;51.77
62592;BME280;48659;41.622;2.276;2023-01-24T09:27:54;100728.77;;;4.38;49.06
62592;BME280;48659;41.622;2.276;2023-01-24T09:30:22;100716.89;;;5.18;46.98
62592;BME280;48659;41.622;2.276;2023-01-24T09:32:49;100713.63;;;2.85;50.60
62592;BME280;48659;41.622;2.276;2023-01-24T09:35:17;100713.40;;;4.36;50.18
62592;BME280;48659;41.622;2.276;2023-01-24T09:37:44;100717.58;;;4.28;49.53
62592;BME280;48659;41.622;2.276;2023-01-24T09:40:18;100714.72;;;5.55;48.86
62592;BME280;48659;41.622;2.276;2023-01-24T09:42:56;100720.20;;;5.00;52.71
62592;BME280;48659;41.622;2.276;2023-01-24T09:45:28;100717.55;;;4.94;48.84
62592;BME280;48659;41.622;2.276;2023-01-24T09:47:59;100725.58;;;4.97;50.17
62592;BME280;48659;41.622;2.276;2023-01-24T09:50:33;100725.13;;;5.51;47.95
62592;BME280;48659;41.622;2.276;2023-01-24T09:53:04;100738.18;;;4.85;49.31
62592;BME280;48659;41.622;2.276;2023-01-24T09:55:34;100739.97;;;5.51;48.09
62592;BME280;48659;41.622;2.276;2023-01-24T09:58:23;100746.44;;;5.14;47.37
62592;BME280;48659;41.622;2.276;2023-01-24T10:00:52;100754.98;;;4.55;48.66
62592;BME280;48659;41.622;2.276;2023-01-24T10:03:21;100757.79;;;4.46;48.17
62592;BME280;48659;41.622;2.276;2023-01-24T10:05:51;100750.60;;;5.10;46.55
62592;BME280;48659;41.622;2.276;2023-01-24T10:08:24;100755.70;;;4.80;47.10
62592;BME280;48659;41.622;2.276;2023-01-24T10:11:04;100753.28;;;5.74;46.99
62592;BME280;48659;41.622;2.276;2023-01-24T10:13:52;100752.24;;;5.36;45.77
62592;BME280;48659;41.622;2.276;2023-01-24T10:16:54;100757.13;;;5.47;47.02
62592;BME280;48659;41.622;2.276;2023-01-24T10:19:36;100763.71;;;5.70;46.36
62592;BME280;48659;41.622;2.276;2023-01-24T10:22:21;100764.09;;;5.64;45.95
62592;BME280;48659;41.622;2.276;2023-01-24T10:24:56;100772.96;;;5.29;46.79
62592;BME280;48659;41.622;2.276;2023-01-24T10:27:30;100778.85;;;6.00;46.60
62592;BME280;48659;41.622;2.276;2023-01-24T10:30:01;100784.37;;;6.08;45.59
62592;BME280;48659;41.622;2.276;2023-01-24T10:32:32;100788.10;;;6.18;47.46
62592;BME280;48659;41.622;2.276;2023-01-24T10:35:02;100782.15;;;5.90;46.38
62592;BME280;48659;41.622;2.276;2023-01-24T10:37:42;100779.54;;;6.15;46.00
62592;BME280;48659;41.622;2.276;2023-01-24T10:40:12;100779.34;;;6.12;46.51
62592;BME280;48659;41.622;2.276;2023-01-24T10:42:40;100779.04;;;5.96;46.64
62592;BME280;48659;41.622;2.276;2023-01-24T10:45:24;100779.39;;;6.29;45.82
62592;BME280;48659;41.622;2.276;2023-01-24T10:47:59;100781.43;;;6.30;46.37
62592;BME280;48659;41.622;2.276;2023-01-24T10:50:34;100784.19;;;6.15;45.34
62592;BME280;48659;41.622;2.276;2023-01-24T10:53:22;100777.02;;;5.84;46.10
62592;BME280;48659;41.622;2.276;2023-01-24T10:55:57;100771.73;;;5.70;46.50
62592;BME280;48659;41.622;2.276;2023-01-24T10:58:26;100773.00;;;6.56;46.14
62592;BME280;48659;41.622;2.276;2023-01-24T11:00:57;100779.90;;;6.50;47.60
62592;BME280;48659;41.622;2.276;2023-01-24T11:03:27;100779.98;;;6.91;47.31
62592;BME280;48659;41.622;2.276;2023-01-24T11:05:56;100778.92;;;6.06;48.32
62592;BME280;48659;41.622;2.276;2023-01-24T11:08:25;100776.95;;;5.85;47.49
62592;BME280;48659;41.622;2.276;2023-01-24T11:10:54;100775.44;;;6.42;46.99
62592;BME280;48659;41.622;2.276;2023-01-24T11:13:28;100768.67;;;6.56;48.40
62592;BME280;48659;41.622;2.276;2023-01-24T11:16:02;100767.84;;;6.31;48.46
62592;BME280;48659;41.622;2.276;2023-01-24T11:18:31;100768.96;;;6.81;47.24
62592;BME280;48659;41.622;2.276;2023-01-24T11:21:15;100770.55;;;6.77;48.09
62592;BME280;48659;41.622;2.276;2023-01-24T11:23:44;100769.93;;;6.70;46.72
62592;BME280;48659;41.622;2.276;2023-01-24T11:26:28;100765.76;;;6.10;48.64
62592;BME280;48659;41.622;2.276;2023-01-24T11:28:59;100767.88;;;6.15;49.00
62592;BME280;48659;41.622;2.276;2023-01-24T11:31:30;100763.72;;;6.71;47.53
62592;BME280;48659;41.622;2.276;2023-01-24T11:34:42;100761.56;;;6.51;48.35
62592;BME280;48659;41.622;2.276;2023-01-24T11:37:28;100761.03;;;6.35;48.94
62592;BME280;48659;41.622;2.276;2023-01-24T11:40:07;100757.88;;;6.60;49.21
62592;BME280;48659;41.622;2.276;2023-01-24T11:42:48;100751.71;;;5.89;49.02
62592;BME280;48659;41.622;2.276;2023-01-24T11:45:28;100744.92;;;6.40;50.35
62592;BME280;48659;41.622;2.276;2023-01-24T11:48:08;100741.00;;;6.42;50.45
62592;BME280;48659;41.622;2.276;2023-01-24T11:50:49;100741.12;;;6.62;48.84
62592;BME280;48659;41.622;2.276;2023-01-24T11:53:37;100738.08;;;6.96;49.60
62592;BME280;48659;41.622;2.276;2023-01-24T11:56:17;100734.45;;;6.54;50.01
62592;BME280;48659;41.622;2.276;2023-01-24T11:59:02;100733.53;;;6.23;50.18
62592;BME280;48659;41.622;2.276;2023-01-24T12:01:44;100731.60;;;6.54;51.31
62592;BME280;48659;41.622;2.276;2023-01-24T12:04:45;100727.33;;;6.50;52.05
62592;BME280;48659;41.622;2.276;2023-01-24T12:07:22;100729.94;;;7.14;49.20
62592;BME280;48659;41.622;2.276;2023-01-24T12:10:01;100725.20;;;6.62;50.63
62592;BME280;48659;41.622;2.276;2023-01-24T12:12:39;100720.28;;;6.33;51.83
62592;BME280;48659;41.622;2.276;2023-01-24T12:15:19;100722.24;;;7.34;50.08
62592;BME280;48659;41.622;2.276;2023-01-24T12:17:57;100713.07;;;7.45;49.35
62592;BME280;48659;41.622;2.276;2023-01-24T12:20:47;100711.17;;;6.95;49.72
62592;BME280;48659;41.622;2.276;2023-01-24T12:23:21;100713.52;;;6.92;49.32
62592;BME280;48659;41.622;2.276;2023-01-24T12:25:53;100709.93;;;6.59;49.20
62592;BME280;48659;41.622;2.276;2023-01-24T12:28:26;100707.72;;;6.65;50.11
62592;BME280;48659;41.622;2.276;2023-01-24T12:30:57;100703.84;;;4.87;53.35
62592;BME280;48659;41.622;2.276;2023-01-24T12:33:32;100700.43;;;4.93;52.96
62592;BME280;48659;41.622;2.276;2023-01-24T12:36:08;100698.46;;;5.78;52.78
62592;BME280;48659;41.622;2.276;2023-01-24T12:38:41;100699.01;;;4.72;54.65
62592;BME280;48659;41.622;2.276;2023-01-24T12:41:18;100695.95;;;6.47;51.79
62592;BME280;48659;41.622;2.276;2023-01-24T12:43:54;100694.42;;;6.15;51.92
62592;BME280;48659;41.622;2.276;2023-01-24T12:46:27;100692.95;;;5.37;55.05
62592;BME280;48659;41.622;2.276;2023-01-24T12:49:06;100690.35;;;6.40;52.97
62592;BME280;48659;41.622;2.276;2023-01-24T12:51:40;100687.28;;;5.47;53.95
62592;BME280;48659;41.622;2.276;2023-01-24T12:54:13;100689.94;;;6.50;51.68
62592;BME280;48659;41.622;2.276;2023-01-24T12:56:49;100684.23;;;5.96;53.58
62592;BME280;48659;41.622;2.276;2023-01-24T12:59:23;100679.71;;;5.99;52.26
62592;BME280;48659;41.622;2.276;2023-01-24T13:02:06;100680.35;;;6.38;52.33
62592;BME280;48659;41.622;2.276;2023-01-24T13:04:48;100674.55;;;6.09;51.74
62592;BME280;48659;41.622;2.276;2023-01-24T13:07:32;100673.28;;;6.41;51.42
62592;BME280;48659;41.622;2.276;2023-01-24T13:10:08;100670.21;;;5.89;52.55
62592;BME280;48659;41.622;2.276;2023-01-24T13:12:41;100665.99;;;5.91;52.49
62592;BME280;48659;41.622;2.276;2023-01-24T13:15:16;100664.89;;;6.39;52.53
62592;BME280;48659;41.622;2.276;2023-01-24T13:17:56;100668.88;;;6.57;52.15
62592;BME280;48659;41.622;2.276;2023-01-24T13:20:40;100669.67;;;7.27;50.54
62592;BME280;48659;41.622;2.276;2023-01-24T13:23:25;100670.84;;;7.01;52.74
62592;BME280;48659;41.622;2.276;2023-01-24T13:26:08;100672.65;;;7.23;51.26
62592;BME280;48659;41.622;2.276;2023-01-24T13:28:47;100673.05;;;7.16;51.14
62592;BME280;48659;41.622;2.276;2023-01-24T13:31:22;100671.27;;;7.77;50.62
62592;BME280;48659;41.622;2.276;2023-01-24T13:33:51;100675.01;;;7.01;51.48
62592;BME280;48659;41.622;2.276;2023-01-24T13:36:23;100673.86;;;7.60;50.52
62592;BME280;48659;41.622;2.276;2023-01-24T13:38:52;100674.71;;;6.67;51.15
62592;BME280;48659;41.622;2.276;2023-01-24T13:41:35;100675.29;;;6.58;51.61
62592;BME280;48659;41.622;2.276;2023-01-24T13:44:25;100667.25;;;7.69;50.05
62592;BME280;48659;41.622;2.276;2023-01-24T13:46:59;100666.46;;;7.84;49.86
62592;BME280;48659;41.622;2.276;2023-01-24T13:49:46;100675.67;;;7.04;51.71
62592;BME280;48659;41.622;2.276;2023-01-24T13:52:38;100671.27;;;7.70;49.93
62592;BME280;48659;41.622;2.276;2023-01-24T13:56:16;100671.90;;;8.33;49.54
62592;BME280;48659;41.622;2.276;2023-01-24T13:58:46;100672.09;;;7.10;51.51
62592;BME280;48659;41.622;2.276;2023-01-24T14:01:18;100668.32;;;7.52;50.64
62592;BME280;48659;41.622;2.276;2023-01-24T14:03:54;100666.54;;;7.78;51.10
62592;BME280;48659;41.622;2.276;2023-01-24T14:06:22;100665.06;;;8.20;49.82
62592;BME280;48659;41.622;2.276;2023-01-24T14:08:57;100664.83;;;7.67;50.53
62592;BME280;48659;41.622;2.276;2023-01-24T14:11:37;100661.81;;;7.74;52.93
62592;BME280;48659;41.622;2.276;2023-01-24T14:15:00;100658.30;;;7.31;51.31
62592;BME280;48659;41.622;2.276;2023-01-24T14:17:45;100656.00;;;7.42;51.55
62592;BME280;48659;41.622;2.276;2023-01-24T14:25:56;100640.20;;;7.91;49.67
62592;BME280;48659;41.622;2.276;2023-01-24T14:28:31;100645.52;;;7.28;50.21
62592;BME280;48659;41.622;2.276;2023-01-24T18:44:21;100789.06;;;3.23;75.73